Terminal Aerodrome Forecast
Issued by NWS Binghamton, NY

Home | Current Version | Previous Version | Text Only | Print | Product List | Glossary On
Versions: 1 2 3 4 5 6 7 8 9 10 11 12 13 14 15
803
FTUS41 KBGM 201742
TAFAVP
TAF
KAVP 201742Z 2018/2118 33008G14KT P6SM SKC
     FM210000 02005KT P6SM FEW250
     FM210800 13004KT P6SM SCT250
     FM211400 19007KT P6SM BKN200=

USA.gov is the U.S. government's official web portal to all federal, state and local government web resources and services.